Split, Croatia
Current Conditions -  °F | °C
As of 11:30 PM on Wednesday 17 Dec 2014 (Local Time) from LDSP Reporting Station
Scattered Clouds Scattered Clouds  
Wind Chill: 52°   Ceiling: Unl
Heat Index: 52°   Visibility: 6mi
Dew Point: 48°   Wind: 0mph
Humidity: 88%   Direction: NA
Pressure: 29.94"   Gusts: NA
Location:  43.51°N, 16.45°E
Report Text: LDSP 172130Z 00000KT 9999 SCT040 11/09 Q1014
Loading
Personal Weather Stations






























Interactive Weather Map New forecast layout! Learn more

10-Day Weather Forecast

Advertisements
Track Severe Weather on mobile